倫敦, 英國

2014年10月21日 08時00分 (GMT +0100)
Heathrow | Change Station
CLOSE
Current Station
機場
Location: London,
海拔: 79 ft
附近的氣象站

海拔 79 ft 51.48 °N, 0.46 °W | Updated 10 minutes ago

Rain
有雨
57 °F
感覺像 57 °F
16
風 變化 風 來自 西南偏西

今日
高 -- | 低 -- °F
--% 降水機率
昨天
高 -- | 低 -- °F
Precip. -- 英寸
7:35 AM 5:56 PM
殘月, 7% visible
氣壓 29.56 英寸
能見度 2.5 英里
多雲 少數 800 ft
多雲時晴 2000 ft
多雲 3000 ft
露點 55 °F
濕度 94%
降雨量 0.00 英寸
積雪深度 不適用。
紫外線 0 / 12
花粉 不適用。
空氣質素 不適用。
Flu Activity 不適用。
METAR EGLL 210650Z 25014KT 4000 RA FEW008 SCT020 BKN030 14/13 Q1001 TEMPO BKN012

More Conditions Fewer Conditions

氣壓 29.56 英寸
能見度 2.5 英里
多雲 少數 800 ft
多雲時晴 2000 ft
多雲 3000 ft
露點 55 °F
濕度 94%
降雨量 0.00 英寸
積雪深度 不適用。
紫外線 0 / 12
花粉 不適用。
空氣質素 不適用。
Flu Activity 不適用。
METAR EGLL 210650Z 25014KT 4000 RA FEW008 SCT020 BKN030 14/13 Q1001 TEMPO BKN012

More Conditions Fewer Conditions

10-Day Weather Forecast

Almanac

天文

Oct. 21, 2014 昇起 降落
實際時間 07:35 BST 17:56 BST
民用曙暮光 07:01 BST 18:30 BST
航海曙暮光 06:22 BST 19:09 BST
天文學微明 05:44 BST 19:47 BST
月亮 04:49 BST 16:55 BST
可見光的長度 11h 28m
白晝時間
10h 20m
Tomorrow will be 3m 46s shorter.
殘月, 7% of the Moon is Illuminated
今日
殘月
10月 23
10月 30
第一季
11月 6
滿月
11月 14
第四季

昨天之最

國家高溫 國家低溫

Community

WunderPhotos

Upload Photos

1,763,619 照片已上傳!

Nearby

積雪量

Not available.

地震活動

城市 距離 時間和日期
附近沒有最近發生的地震活動。
顯示的最小幅度是2.5。

沿海水溫

地點 溫度
無任何天氣監測站報告

附近的氣象站